Time;durP1;ratioP1;P1;durP2;ratioP2;P2;SDS_P1;SDS_P2;PMS_P1;PMS_P2;Temp;Humidity;BMP_temperature;BMP_pressure;BME280_temperature;BME280_humidity;BME280_pressure;Samples;Min_cycle;Max_cycle;Signal;HPM_P1;HPM_P2
2023/11/22 00:02:20;;;;;;;;;;;;;;;0.08;100.00;102424.66;6183426;23;19967;-78
2023/11/22 00:04:45;;;;;;;;;;;;;;;0.10;100.00;102428.06;6186042;23;19966;-78
2023/11/22 00:07:10;;;;;;;;;;;;;;;0.12;100.00;102420.00;6187348;23;19998;-78
2023/11/22 00:09:36;;;;;;;;;;;;;;;0.05;100.00;102430.13;6186918;23;19947;-78
2023/11/22 00:12:01;;;;;;;;;;;;;;;0.00;100.00;102424.25;6188356;23;19917;-78
2023/11/22 00:14:26;;;;;;;;;;;;;;;-0.09;100.00;102419.47;6187705;23;19912;-78
2023/11/22 00:16:52;;;;;;;;;;;;;;;-0.12;100.00;102412.56;6185338;23;19943;-78
2023/11/22 00:19:22;;;;;;;;;;;;;;;-0.18;100.00;102413.75;6187391;23;19995;-77
2023/11/22 00:21:47;;;;;;;;;;;;;;;-0.22;100.00;102414.91;6186693;23;19923;-78
2023/11/22 00:24:12;;;;;;;;;;;;;;;-0.24;100.00;102414.13;6185711;23;19916;-77
2023/11/22 00:26:37;;;;;;;;;;;;;;;-0.28;100.00;102412.59;6189227;23;19917;-77
2023/11/22 00:29:02;;;;;;;;;;;;;;;-0.33;100.00;102419.91;6190655;23;19919;-78
2023/11/22 00:31:28;;;;;;;;;;;;;;;-0.31;100.00;102436.56;6196786;23;19928;-78
2023/11/22 01:59:51;;;;;;;;;;;;;;;-0.24;100.00;102519.13;6217596;23;19924;-77
2023/11/22 02:21:18;;;;;;;;;;;;;;;-0.56;100.00;102498.78;6213469;23;19916;-77
2023/11/22 02:27:11;;;;;;;;;;;;;;;-0.69;100.00;102511.81;6214528;23;19922;-77
2023/11/22 02:29:36;;;;;;;;;;;;;;;-0.73;100.00;102514.72;6213190;23;19912;-77
2023/11/22 02:38:08;;;;;;;;;;;;;;;-1.08;100.00;102531.47;6214006;23;20344;-77
2023/11/22 02:41:01;;;;;;;;;;;;;;;-1.13;100.00;102529.06;6214192;23;19912;-77
2023/11/22 02:43:46;;;;;;;;;;;;;;;-1.18;100.00;102541.66;6206135;23;19927;-77
2023/11/22 02:46:14;;;;;;;;;;;;;;;-1.27;100.00;102545.63;6136319;23;19919;-77
2023/11/22 02:48:40;;;;;;;;;;;;;;;-1.22;100.00;102553.31;6214273;23;19966;-78
2023/11/22 02:51:06;;;;;;;;;;;;;;;-1.30;100.00;102555.50;6215413;23;19963;-77
2023/11/22 02:53:32;;;;;;;;;;;;;;;-1.24;100.00;102553.41;6214173;23;19912;-77
2023/11/22 02:56:00;;;;;;;;;;;;;;;-1.21;100.00;102549.72;6213212;23;19950;-77
2023/11/22 02:58:25;;;;;;;;;;;;;;;-1.25;100.00;102553.50;6214208;23;19923;-77
2023/11/22 03:00:54;;;;;;;;;;;;;;;-1.32;100.00;102560.84;6214568;23;19912;-77
2023/11/22 03:03:20;;;;;;;;;;;;;;;-1.37;100.00;102550.50;6214546;23;19970;-77
2023/11/22 03:05:45;;;;;;;;;;;;;;;-1.42;100.00;102546.38;6215073;23;20263;-77
2023/11/22 03:08:10;;;;;;;;;;;;;;;-1.47;100.00;102538.69;6214001;23;19923;-77
2023/11/22 03:13:11;;;;;;;;;;;;;;;-1.28;100.00;102527.22;6212709;23;19923;-77
2023/11/22 03:15:36;;;;;;;;;;;;;;;-1.14;100.00;102535.28;6213711;23;19977;-77
2023/11/22 03:18:01;;;;;;;;;;;;;;;-1.13;100.00;102538.78;6214843;23;20312;-77
2023/11/22 03:20:27;;;;;;;;;;;;;;;-1.05;100.00;102549.81;6215804;23;19912;-77
2023/11/22 05:20:42;;;;;;;;;;;;;;;-2.41;100.00;102656.56;6185221;23;19960;-76
2023/11/22 05:23:13;;;;;;;;;;;;;;;-2.46;100.00;102657.63;6183932;23;19916;-75
2023/11/22 05:28:41;;;;;;;;;;;;;;;-2.59;100.00;102652.03;6185694;23;20383;-77
2023/11/22 05:31:10;;;;;;;;;;;;;;;-2.63;100.00;102645.16;6185875;23;19912;-78
2023/11/22 05:33:50;;;;;;;;;;;;;;;-2.71;100.00;102642.00;6190162;23;19913;-79
2023/11/22 05:36:16;;;;;;;;;;;;;;;-2.79;100.00;102647.63;6186479;23;19912;-79
2023/11/22 05:38:42;;;;;;;;;;;;;;;-2.82;100.00;102644.22;6185742;23;19908;-78
2023/11/22 05:41:11;;;;;;;;;;;;;;;-2.84;100.00;102646.09;6186753;23;19919;-78
2023/11/22 05:43:36;;;;;;;;;;;;;;;-2.87;100.00;102654.97;6184597;23;19917;-79
2023/11/22 05:46:04;;;;;;;;;;;;;;;-2.92;100.00;102644.63;6184906;23;19976;-78
2023/11/22 05:48:45;;;;;;;;;;;;;;;-2.96;100.00;102640.41;6186684;23;19912;-78
2023/11/22 05:51:10;;;;;;;;;;;;;;;-2.98;100.00;102650.16;6185839;23;20280;-79
2023/11/22 05:53:51;;;;;;;;;;;;;;;-3.00;100.00;102649.34;6187882;23;20003;-77
2023/11/22 05:56:16;;;;;;;;;;;;;;;-2.83;100.00;102655.72;6186016;23;19936;-78
2023/11/22 05:58:42;;;;;;;;;;;;;;;-2.82;100.00;102649.50;6183707;23;19919;-78
2023/11/22 06:01:07;;;;;;;;;;;;;;;-2.80;100.00;102634.47;6183544;23;20272;-78
2023/11/22 06:03:33;;;;;;;;;;;;;;;-2.71;100.00;102652.56;6187285;23;19913;-78
2023/11/22 06:05:58;;;;;;;;;;;;;;;-2.83;100.00;102656.56;6185873;23;20232;-77
2023/11/22 06:08:24;;;;;;;;;;;;;;;-2.88;100.00;102649.78;6184739;23;19916;-78
2023/11/22 06:10:49;;;;;;;;;;;;;;;-2.97;100.00;102653.66;6185033;23;19916;-78
2023/11/22 06:13:14;;;;;;;;;;;;;;;-3.02;100.00;102653.84;6183392;23;20062;-78
2023/11/22 06:15:43;;;;;;;;;;;;;;;-3.08;100.00;102660.19;6183209;23;19947;-78
2023/11/22 06:18:08;;;;;;;;;;;;;;;-3.08;100.00;102667.25;6185190;23;19919;-78
2023/11/22 06:20:33;;;;;;;;;;;;;;;-3.16;100.00;102680.75;6184078;23;20238;-77
2023/11/22 06:22:59;;;;;;;;;;;;;;;-3.21;100.00;102688.84;6184589;23;19913;-78
2023/11/22 06:25:24;;;;;;;;;;;;;;;-3.24;100.00;102688.97;6185288;23;19976;-78
2023/11/22 06:27:49;;;;;;;;;;;;;;;-3.29;100.00;102690.91;6183905;23;19920;-78
2023/11/22 06:30:15;;;;;;;;;;;;;;;-3.27;100.00;102691.72;6184807;23;19912;-78
2023/11/22 06:32:42;;;;;;;;;;;;;;;-3.18;100.00;102679.94;6185174;23;19943;-78
2023/11/22 06:35:08;;;;;;;;;;;;;;;-3.14;100.00;102680.69;6184185;23;19916;-78
2023/11/22 06:37:34;;;;;;;;;;;;;;;-3.14;100.00;102691.22;6185041;23;20334;-78
2023/11/22 06:40:00;;;;;;;;;;;;;;;-3.16;100.00;102685.16;6184916;23;20063;-78
2023/11/22 06:42:25;;;;;;;;;;;;;;;-3.16;100.00;102691.28;6184443;23;19963;-78
2023/11/22 06:44:52;;;;;;;;;;;;;;;-3.13;100.00;102695.56;6184687;23;19916;-78
2023/11/22 06:47:18;;;;;;;;;;;;;;;-3.04;100.00;102705.75;6183673;23;19916;-78
2023/11/22 06:49:43;;;;;;;;;;;;;;;-3.05;100.00;102725.09;6184306;23;19943;-78
2023/11/22 06:52:09;;;;;;;;;;;;;;;-3.07;100.00;102724.31;6184041;23;19920;-78
2023/11/22 06:54:35;;;;;;;;;;;;;;;-3.03;100.00;102723.28;6183561;23;19919;-78
2023/11/22 06:57:00;;;;;;;;;;;;;;;-2.76;100.00;102738.88;6183238;23;19939;-77
2023/11/22 06:59:25;;;;;;;;;;;;;;;-2.72;100.00;102732.56;6186087;23;20318;-78
2023/11/22 07:01:51;;;;;;;;;;;;;;;-2.65;100.00;102733.16;6183272;23;20006;-77
2023/11/22 07:04:16;;;;;;;;;;;;;;;-2.60;100.00;102742.59;6184560;23;19912;-77
2023/11/22 07:06:43;;;;;;;;;;;;;;;-2.57;100.00;102741.63;6184126;23;19970;-77
2023/11/22 07:09:13;;;;;;;;;;;;;;;-2.54;100.00;102745.91;6185400;23;19988;-77
2023/11/22 07:11:38;;;;;;;;;;;;;;;-2.54;100.00;102741.47;6185457;23;19966;-77
2023/11/22 07:14:04;;;;;;;;;;;;;;;-2.51;100.00;102740.50;6185362;23;19920;-78
2023/11/22 07:16:29;;;;;;;;;;;;;;;-2.44;100.00;102727.00;6186677;23;19912;-80
2023/11/22 07:18:54;;;;;;;;;;;;;;;-2.36;100.00;102718.75;6187027;23;19924;-77
2023/11/22 07:21:20;;;;;;;;;;;;;;;-2.30;100.00;102720.25;6185750;23;19916;-78
2023/11/22 07:23:46;;;;;;;;;;;;;;;-2.21;100.00;102726.91;6185436;23;19939;-78
2023/11/22 07:26:14;;;;;;;;;;;;;;;-2.14;100.00;102723.09;6186686;23;19912;-78
2023/11/22 07:28:39;;;;;;;;;;;;;;;-2.03;100.00;102720.00;6185716;23;19923;-78
2023/11/22 07:31:06;;;;;;;;;;;;;;;-1.90;100.00;102717.63;6186069;23;19939;-78
2023/11/22 07:33:32;;;;;;;;;;;;;;;-1.77;100.00;102713.53;6186575;23;19921;-78
2023/11/22 07:35:58;;;;;;;;;;;;;;;-1.64;100.00;102707.69;6185079;23;19960;-78
2023/11/22 07:38:23;;;;;;;;;;;;;;;-1.54;100.00;102695.75;6187450;23;20369;-78
2023/11/22 07:40:48;;;;;;;;;;;;;;;-1.43;100.00;102698.78;6187185;23;20022;-79
2023/11/22 07:43:14;;;;;;;;;;;;;;;-1.27;100.00;102709.44;6184884;23;19912;-78
2023/11/22 07:45:40;;;;;;;;;;;;;;;-1.15;100.00;102701.88;6187627;23;19912;-83
2023/11/22 07:48:05;;;;;;;;;;;;;;;-1.07;100.00;102711.16;6186941;23;20237;-80
2023/11/22 07:50:31;;;;;;;;;;;;;;;-0.99;100.00;102712.53;6184923;23;19994;-80
2023/11/22 07:52:56;;;;;;;;;;;;;;;-0.90;100.00;102713.88;6186126;23;19995;-81
2023/11/22 07:55:21;;;;;;;;;;;;;;;-0.85;100.00;102728.59;6186659;23;19995;-80
2023/11/22 07:57:48;;;;;;;;;;;;;;;-0.83;100.00;102732.00;6185061;23;19912;-80
2023/11/22 08:00:14;;;;;;;;;;;;;;;-0.88;100.00;102731.38;6185109;23;20265;-80
2023/11/22 08:02:39;;;;;;;;;;;;;;;-0.83;100.00;102739.94;6187507;23;19919;-80
2023/11/22 08:05:08;;;;;;;;;;;;;;;-0.85;100.00;102731.22;6185626;23;19995;-79
2023/11/22 08:07:33;;;;;;;;;;;;;;;-0.77;100.00;102737.00;6186882;23;19959;-79
2023/11/22 08:09:59;;;;;;;;;;;;;;;-0.78;100.00;102740.59;6186759;23;19912;-80
2023/11/22 08:12:28;;;;;;;;;;;;;;;-0.78;100.00;102750.28;6185654;23;20257;-79
2023/11/22 08:14:55;;;;;;;;;;;;;;;-0.70;100.00;102760.50;6184739;23;19986;-80
2023/11/22 08:17:20;;;;;;;;;;;;;;;-0.56;100.00;102751.88;6185883;23;19939;-80
2023/11/22 08:19:47;;;;;;;;;;;;;;;-0.42;100.00;102752.03;6183512;23;20341;-79
2023/11/22 08:22:13;;;;;;;;;;;;;;;-0.27;100.00;102757.50;6187408;23;19966;-79
2023/11/22 08:24:38;;;;;;;;;;;;;;;-0.19;100.00;102771.19;6188214;23;19912;-79
2023/11/22 08:27:03;;;;;;;;;;;;;;;-0.14;100.00;102773.59;6186634;23;19916;-79
2023/11/22 08:29:28;;;;;;;;;;;;;;;-0.05;100.00;102781.06;6188666;23;19934;-79
2023/11/22 08:31:54;;;;;;;;;;;;;;;0.09;100.00;102773.25;6193177;23;19912;-79
2023/11/22 08:34:21;;;;;;;;;;;;;;;0.21;100.00;102785.00;6202692;23;19913;-81
2023/11/22 08:36:46;;;;;;;;;;;;;;;0.37;100.00;102779.72;6205370;23;19918;-79
2023/11/22 08:39:11;;;;;;;;;;;;;;;0.44;100.00;102780.28;6185766;23;19986;-79
2023/11/22 08:41:39;;;;;;;;;;;;;;;0.48;100.00;102787.09;6186161;23;19919;-80
2023/11/22 08:44:06;;;;;;;;;;;;;;;0.56;100.00;102782.25;6185593;23;19920;-80
2023/11/22 08:46:32;;;;;;;;;;;;;;;0.66;100.00;102787.91;6185720;23;20343;-80
2023/11/22 08:48:57;;;;;;;;;;;;;;;0.74;100.00;102791.00;6185966;23;20321;-79
2023/11/22 08:51:22;;;;;;;;;;;;;;;0.71;100.00;102779.72;6186260;23;19912;-81
2023/11/22 08:53:48;;;;;;;;;;;;;;;0.80;100.00;102781.84;6186101;23;19920;-80
2023/11/22 08:56:15;;;;;;;;;;;;;;;0.84;100.00;102777.25;6157683;23;19935;-80
2023/11/22 08:58:40;;;;;;;;;;;;;;;0.94;100.00;102791.69;6184323;23;19999;-80
2023/11/22 09:01:06;;;;;;;;;;;;;;;1.01;100.00;102801.03;6186033;23;19924;-80
2023/11/22 09:03:32;;;;;;;;;;;;;;;1.09;100.00;102797.06;6187941;23;19913;-81
2023/11/22 09:05:57;;;;;;;;;;;;;;;1.15;100.00;102796.72;6189093;23;19912;-81
2023/11/22 09:08:23;;;;;;;;;;;;;;;1.27;100.00;102811.09;6187437;23;20245;-81
2023/11/22 09:10:48;;;;;;;;;;;;;;;1.29;100.00;102809.22;6187080;23;19919;-81
2023/11/22 09:13:16;;;;;;;;;;;;;;;1.41;100.00;102797.06;6184257;23;19912;-81
2023/11/22 09:15:44;;;;;;;;;;;;;;;1.74;100.00;102796.03;6185025;23;19923;-81
2023/11/22 09:18:09;;;;;;;;;;;;;;;1.83;100.00;102781.34;6184326;23;19912;-81
2023/11/22 09:20:34;;;;;;;;;;;;;;;1.88;100.00;102788.09;6184355;23;19919;-80
2023/11/22 09:23:00;;;;;;;;;;;;;;;1.64;100.00;102793.91;6183799;23;19916;-81
2023/11/22 09:25:25;;;;;;;;;;;;;;;1.76;100.00;102797.63;6186008;23;20242;-81
2023/11/22 09:27:51;;;;;;;;;;;;;;;1.75;100.00;102806.56;6184601;23;20249;-82
2023/11/22 09:30:32;;;;;;;;;;;;;;;1.65;100.00;102798.28;6186371;23;19912;-82
2023/11/22 09:33:01;;;;;;;;;;;;;;;1.91;100.00;102798.53;6189801;23;19916;-82
2023/11/22 09:35:31;;;;;;;;;;;;;;;1.97;100.00;102807.94;6186813;23;19920;-81
2023/11/22 09:38:00;;;;;;;;;;;;;;;1.85;100.00;102808.69;6188371;23;19912;-81
2023/11/22 09:40:27;;;;;;;;;;;;;;;2.10;100.00;102802.75;6182979;23;19916;-81
2023/11/22 09:42:52;;;;;;;;;;;;;;;2.05;100.00;102791.53;6183109;23;19983;-80
2023/11/22 09:45:21;;;;;;;;;;;;;;;2.12;100.00;102792.84;6185529;23;20323;-81
2023/11/22 09:47:46;;;;;;;;;;;;;;;2.39;100.00;102786.81;6185204;23;20249;-80
2023/11/22 09:50:14;;;;;;;;;;;;;;;2.34;100.00;102795.06;6184000;23;19987;-80
2023/11/22 09:52:41;;;;;;;;;;;;;;;2.32;100.00;102796.97;6186291;23;19912;-80
2023/11/22 09:55:07;;;;;;;;;;;;;;;2.58;100.00;102806.00;6185156;23;19916;-80
2023/11/22 10:06:14;;;;;;;;;;;;;;;2.95;100.00;102794.81;6194433;23;20653;-81
2023/11/22 10:11:44;;;;;;;;;;;;;;;2.77;100.00;102799.50;6184872;22;19924;-81
2023/11/22 10:14:10;;;;;;;;;;;;;;;2.83;100.00;102798.25;6184119;23;20006;-81
2023/11/22 10:16:35;;;;;;;;;;;;;;;3.01;100.00;102796.22;6186225;23;19951;-81
2023/11/22 10:19:00;;;;;;;;;;;;;;;3.13;100.00;102797.25;6183327;23;19912;-82
2023/11/22 10:21:28;;;;;;;;;;;;;;;3.17;100.00;102802.28;6183584;23;19999;-82
2023/11/22 10:23:56;;;;;;;;;;;;;;;3.18;100.00;102800.47;6185292;23;19966;-81
2023/11/22 10:26:23;;;;;;;;;;;;;;;3.33;100.00;102779.97;6185274;23;19919;-81
2023/11/22 10:28:50;;;;;;;;;;;;;;;3.30;100.00;102791.66;6184520;23;20192;-81
2023/11/22 10:31:15;;;;;;;;;;;;;;;3.39;100.00;102784.88;6185739;23;19978;-81
2023/11/22 10:33:43;;;;;;;;;;;;;;;3.44;100.00;102782.78;6182744;23;20309;-81
2023/11/22 10:36:08;;;;;;;;;;;;;;;3.71;100.00;102789.84;6183884;23;19916;-82
2023/11/22 10:38:34;;;;;;;;;;;;;;;3.63;100.00;102786.88;6185573;23;19974;-81
2023/11/22 10:41:01;;;;;;;;;;;;;;;3.86;100.00;102792.47;6180845;23;19923;-82
2023/11/22 10:43:32;;;;;;;;;;;;;;;3.97;100.00;102784.56;6182505;23;19971;-82
2023/11/22 10:45:57;;;;;;;;;;;;;;;4.15;99.85;102766.44;6181477;23;19962;-82
2023/11/22 10:48:22;;;;;;;;;;;;;;;4.08;98.41;102766.03;6155059;23;20317;-82
2023/11/22 10:50:48;;;;;;;;;;;;;;;4.36;96.12;102761.44;6182053;23;20388;-82
2023/11/22 10:53:15;;;;;;;;;;;;;;;4.32;93.22;102754.59;6181004;23;20317;-82
2023/11/22 10:55:47;;;;;;;;;;;;;;;4.48;93.48;102746.38;6181121;23;19916;-81
2023/11/22 10:58:13;;;;;;;;;;;;;;;4.55;92.24;102738.78;6154823;23;19912;-80
2023/11/22 11:03:39;;;;;;;;;;;;;;;4.62;89.06;102748.03;6210869;23;19920;-81
2023/11/22 11:06:05;;;;;;;;;;;;;;;4.59;89.27;102742.91;6211406;23;20347;-81
2023/11/22 11:17:14;;;;;;;;;;;;;;;4.31;90.54;102739.56;6205848;23;19919;-81
2023/11/22 11:19:40;;;;;;;;;;;;;;;4.47;89.88;102749.13;6131354;23;20309;-82
2023/11/22 11:25:05;;;;;;;;;;;;;;;4.64;87.89;102753.28;6118134;23;19924;-82
2023/11/22 11:27:42;;;;;;;;;;;;;;;4.82;87.44;102740.41;6211447;23;19912;-82
2023/11/22 11:30:40;;;;;;;;;;;;;;;5.25;86.71;102731.91;6211764;23;19916;-81
2023/11/22 11:33:41;;;;;;;;;;;;;;;5.44;85.42;102712.66;6147335;23;19913;-82
2023/11/22 11:39:39;;;;;;;;;;;;;;;5.90;80.95;102684.19;6102780;23;19928;-82
2023/11/22 11:42:07;;;;;;;;;;;;;;;5.98;78.49;102669.38;6151351;23;20253;-82
2023/11/22 11:47:41;;;;;;;;;;;;;;;5.60;79.02;102648.22;6212205;23;19934;-82
2023/11/22 11:50:06;;;;;;;;;;;;;;;5.31;80.53;102640.63;6213650;23;19912;-82
2023/11/22 11:52:50;;;;;;;;;;;;;;;5.59;80.90;102633.16;6215395;23;19912;-82
2023/11/22 11:55:18;;;;;;;;;;;;;;;6.36;79.25;102617.31;6212695;23;20174;-82
2023/11/22 11:57:46;;;;;;;;;;;;;;;7.16;74.81;102592.91;6212119;23;20243;-81
2023/11/22 12:00:14;;;;;;;;;;;;;;;7.90;70.78;102589.19;6216222;23;19912;-82
2023/11/22 12:02:41;;;;;;;;;;;;;;;8.18;70.31;102602.78;6215287;23;20131;-81
2023/11/22 12:05:08;;;;;;;;;;;;;;;8.96;64.71;102607.41;6215335;23;19912;-82
2023/11/22 12:07:34;;;;;;;;;;;;;;;9.55;62.02;102626.94;6218214;23;19912;-81
2023/11/22 12:10:00;;;;;;;;;;;;;;;9.97;59.80;102620.25;6209424;23;19923;-81
2023/11/22 12:12:56;;;;;;;;;;;;;;;10.03;56.89;102618.84;6215343;23;19924;-82
2023/11/22 12:18:58;;;;;;;;;;;;;;;10.65;54.77;102598.47;6218900;23;19923;-82
2023/11/22 12:25:19;;;;;;;;;;;;;;;11.66;52.53;102597.97;6219720;23;19927;-82
2023/11/22 12:37:16;;;;;;;;;;;;;;;9.43;55.32;102622.72;6215387;23;19987;-82
2023/11/22 12:42:17;;;;;;;;;;;;;;;8.89;53.28;102604.44;6213766;23;19927;-81
2023/11/22 12:50:41;;;;;;;;;;;;;;;8.22;56.88;102596.16;6216467;23;20478;-81
2023/11/22 12:53:10;;;;;;;;;;;;;;;8.53;57.11;102588.03;6218068;23;19916;-81
2023/11/22 12:55:36;;;;;;;;;;;;;;;9.33;53.12;102606.63;6216870;23;19958;-81
2023/11/22 12:58:38;;;;;;;;;;;;;;;10.30;50.62;102603.66;6219749;23;20076;-81
2023/11/22 13:04:14;;;;;;;;;;;;;;;10.19;52.19;102595.78;6209993;23;19934;-79
2023/11/22 13:06:39;;;;;;;;;;;;;;;10.14;50.35;102605.16;6216681;23;19916;-82
2023/11/22 13:11:51;;;;;;;;;;;;;;;10.16;51.42;102592.41;6215215;23;19958;-82
2023/11/22 13:14:17;;;;;;;;;;;;;;;9.58;52.03;102593.53;6217189;23;20276;-82
2023/11/22 13:19:47;;;;;;;;;;;;;;;8.01;58.95;102591.75;6217008;23;19915;-82
2023/11/22 13:22:12;;;;;;;;;;;;;;;7.54;61.32;102583.38;6218292;23;19916;-82
2023/11/22 13:33:00;;;;;;;;;;;;;;;6.11;69.43;102557.81;6212443;23;19923;-81
2023/11/22 13:35:31;;;;;;;;;;;;;;;5.97;70.26;102544.72;6215519;23;20343;-80
2023/11/22 13:37:57;;;;;;;;;;;;;;;5.81;70.57;102543.28;6217446;23;19908;-80
2023/11/22 13:40:23;;;;;;;;;;;;;;;5.52;70.94;102533.06;6215857;23;19912;-80
2023/11/22 13:42:50;;;;;;;;;;;;;;;5.46;72.22;102533.59;6214786;23;19908;-80
2023/11/22 13:45:16;;;;;;;;;;;;;;;5.16;73.92;102537.66;6216411;23;19982;-80
2023/11/22 13:47:48;;;;;;;;;;;;;;;5.27;74.34;102531.50;6214771;23;19912;-80
2023/11/22 13:50:18;;;;;;;;;;;;;;;5.31;74.04;102531.13;6214947;23;19915;-80
2023/11/22 13:52:43;;;;;;;;;;;;;;;5.32;74.32;102527.50;6216875;23;19911;-80
2023/11/22 13:55:10;;;;;;;;;;;;;;;5.28;73.83;102531.41;6218253;23;19943;-80
2023/11/22 13:57:36;;;;;;;;;;;;;;;5.24;74.45;102537.94;6219959;23;19912;-80
2023/11/22 14:00:02;;;;;;;;;;;;;;;5.25;74.73;102536.97;6222196;23;20336;-79
2023/11/22 14:02:27;;;;;;;;;;;;;;;5.20;75.62;102539.13;6217634;23;20314;-79
2023/11/22 14:04:53;;;;;;;;;;;;;;;5.16;76.09;102532.34;6213760;23;19919;-79
2023/11/22 14:07:18;;;;;;;;;;;;;;;5.03;75.84;102537.75;6216565;23;19911;-80
2023/11/22 14:09:46;;;;;;;;;;;;;;;4.89;77.15;102525.50;6213767;23;19916;-80
2023/11/22 14:12:12;;;;;;;;;;;;;;;5.04;75.06;102530.63;6215267;23;19912;-80
2023/11/22 14:14:37;;;;;;;;;;;;;;;5.04;74.73;102530.63;6216710;23;20324;-81
2023/11/22 14:17:03;;;;;;;;;;;;;;;5.08;72.08;102527.59;6214766;23;19912;-81
2023/11/22 14:19:29;;;;;;;;;;;;;;;5.06;72.92;102536.69;6216124;23;19966;-81
2023/11/22 14:21:54;;;;;;;;;;;;;;;4.99;71.48;102531.81;6216285;23;19916;-81
2023/11/22 14:24:19;;;;;;;;;;;;;;;4.87;73.15;102538.13;6224095;23;19926;-80
2023/11/22 14:26:48;;;;;;;;;;;;;;;4.92;73.44;102538.63;6228126;23;19958;-81
2023/11/22 14:29:14;;;;;;;;;;;;;;;4.97;72.99;102533.75;6216843;23;19939;-81
2023/11/22 14:31:39;;;;;;;;;;;;;;;4.91;73.26;102523.56;6213767;23;20229;-80
2023/11/22 14:34:05;;;;;;;;;;;;;;;4.91;73.08;102525.38;6214516;23;20252;-80
2023/11/22 14:36:30;;;;;;;;;;;;;;;4.78;73.97;102520.13;6216134;23;19919;-80
2023/11/22 14:38:56;;;;;;;;;;;;;;;4.75;74.53;102523.88;6214364;23;19959;-80
2023/11/22 14:41:22;;;;;;;;;;;;;;;4.82;74.60;102513.59;6214860;23;19920;-80
2023/11/22 14:43:47;;;;;;;;;;;;;;;4.81;75.02;102512.75;6215675;23;19912;-81
2023/11/22 14:46:12;;;;;;;;;;;;;;;4.78;76.05;102510.31;6214379;23;19970;-80
2023/11/22 14:48:37;;;;;;;;;;;;;;;4.73;76.47;102506.31;6215176;23;19983;-80
2023/11/22 14:51:03;;;;;;;;;;;;;;;4.65;77.69;102507.72;6216121;23;19946;-80
2023/11/22 14:53:28;;;;;;;;;;;;;;;4.72;77.31;102512.59;6214732;23;19916;-80
2023/11/22 14:55:53;;;;;;;;;;;;;;;4.69;77.56;102514.53;6214936;23;19990;-80
2023/11/22 14:58:25;;;;;;;;;;;;;;;4.66;78.04;102520.09;6215781;23;20284;-80
2023/11/22 15:00:50;;;;;;;;;;;;;;;4.68;78.04;102519.97;6214992;23;19954;-80
2023/11/22 15:03:20;;;;;;;;;;;;;;;4.60;79.27;102520.56;6215276;23;20237;-80
2023/11/22 15:05:45;;;;;;;;;;;;;;;4.67;78.79;102521.81;6217644;23;19927;-81
2023/11/22 15:08:17;;;;;;;;;;;;;;;4.66;80.28;102514.78;6214645;23;19940;-80
2023/11/22 15:10:42;;;;;;;;;;;;;;;4.69;80.77;102514.53;6214710;23;20360;-80
2023/11/22 15:16:12;;;;;;;;;;;;;;;4.67;81.23;102524.47;6214729;23;19923;-80
2023/11/22 15:18:38;;;;;;;;;;;;;;;4.45;82.02;102521.72;6214266;23;20331;-80
2023/11/22 15:21:05;;;;;;;;;;;;;;;4.51;82.51;102522.09;6215226;23;19983;-80
2023/11/22 15:23:40;;;;;;;;;;;;;;;4.51;83.03;102532.78;6215359;23;19919;-80
2023/11/22 15:26:14;;;;;;;;;;;;;;;4.61;83.15;102519.59;6214991;23;19931;-80
2023/11/22 15:28:51;;;;;;;;;;;;;;;4.63;83.95;102504.31;6215290;23;19990;-80
2023/11/22 15:31:18;;;;;;;;;;;;;;;4.64;84.26;102511.38;6214762;23;19908;-80
2023/11/22 15:33:43;;;;;;;;;;;;;;;4.55;84.22;102504.06;6214518;23;19919;-80
2023/11/22 15:36:11;;;;;;;;;;;;;;;4.51;85.78;102497.25;6217089;23;19916;-80
2023/11/22 15:38:39;;;;;;;;;;;;;;;4.48;86.07;102481.50;6217513;23;19945;-80
2023/11/22 15:41:05;;;;;;;;;;;;;;;4.40;85.80;102492.75;6216176;23;19912;-81
2023/11/22 15:43:36;;;;;;;;;;;;;;;4.36;87.29;102485.94;6218600;23;19916;-80
2023/11/22 15:46:01;;;;;;;;;;;;;;;4.37;86.67;102476.97;6225995;23;19920;-80
2023/11/22 15:48:26;;;;;;;;;;;;;;;4.34;87.28;102482.53;6230425;23;19912;-81
2023/11/22 15:50:52;;;;;;;;;;;;;;;4.22;88.48;102497.66;6220167;23;19943;-81
2023/11/22 15:53:17;;;;;;;;;;;;;;;4.01;90.33;102508.94;6217442;23;19912;-80
2023/11/22 15:55:42;;;;;;;;;;;;;;;3.99;89.75;102524.19;6216284;23;19920;-81
2023/11/22 15:58:08;;;;;;;;;;;;;;;4.05;89.34;102523.72;6217348;23;19935;-81
2023/11/22 16:00:34;;;;;;;;;;;;;;;3.98;90.39;102527.78;6216723;23;20405;-81
2023/11/22 16:02:59;;;;;;;;;;;;;;;4.09;89.58;102517.19;6215695;23;19945;-81
2023/11/22 16:05:24;;;;;;;;;;;;;;;4.21;88.80;102514.59;6217269;23;19936;-81
2023/11/22 16:07:49;;;;;;;;;;;;;;;4.29;88.58;102503.38;6217130;23;19934;-81
2023/11/22 16:10:16;;;;;;;;;;;;;;;4.30;89.49;102502.41;6216013;23;19983;-80
2023/11/22 16:12:41;;;;;;;;;;;;;;;4.35;88.91;102495.75;6218005;23;20300;-80
2023/11/22 16:15:06;;;;;;;;;;;;;;;4.35;88.89;102498.44;6218628;23;19912;-80
2023/11/22 16:17:33;;;;;;;;;;;;;;;4.30;89.59;102497.91;6218028;23;19939;-80
2023/11/22 16:20:00;;;;;;;;;;;;;;;4.33;89.36;102499.47;6219645;23;19912;-80
2023/11/22 16:22:25;;;;;;;;;;;;;;;4.35;89.41;102489.56;6219726;23;20321;-80
2023/11/22 16:24:52;;;;;;;;;;;;;;;4.35;89.88;102477.09;6221773;23;19916;-80
2023/11/22 16:27:17;;;;;;;;;;;;;;;4.37;90.08;102466.28;6227224;23;19916;-82
2023/11/22 16:29:43;;;;;;;;;;;;;;;4.32;91.26;102469.31;6227380;23;19935;-80
2023/11/22 16:32:08;;;;;;;;;;;;;;;4.28;91.22;102446.50;6218738;23;19987;-82
2023/11/22 16:34:33;;;;;;;;;;;;;;;4.30;91.16;102439.25;6217658;23;19912;-80
2023/11/22 16:36:59;;;;;;;;;;;;;;;4.28;93.22;102427.84;6218202;23;19912;-82
2023/11/22 16:39:24;;;;;;;;;;;;;;;4.28;93.88;102427.84;6216555;23;20350;-80
2023/11/22 16:41:49;;;;;;;;;;;;;;;4.27;93.16;102422.66;6217588;23;19934;-81
2023/11/22 16:44:16;;;;;;;;;;;;;;;4.21;93.69;102427.47;6218557;23;20233;-80
2023/11/22 16:46:44;;;;;;;;;;;;;;;4.22;94.61;102417.69;6187935;23;19915;-79
2023/11/22 16:49:09;;;;;;;;;;;;;;;4.20;94.51;102416.94;6217631;23;19948;-79
2023/11/22 16:51:35;;;;;;;;;;;;;;;4.20;95.51;102415.09;6216668;23;19935;-79
2023/11/22 16:54:00;;;;;;;;;;;;;;;4.10;96.08;102408.78;6218397;23;20317;-79
2023/11/22 16:56:25;;;;;;;;;;;;;;;4.18;96.52;102410.88;6224863;23;20230;-80
2023/11/22 16:58:50;;;;;;;;;;;;;;;4.18;97.22;102397.53;6227316;23;19927;-80
2023/11/22 17:01:18;;;;;;;;;;;;;;;4.07;98.92;102391.19;6222068;23;20006;-80
2023/11/22 17:03:44;;;;;;;;;;;;;;;4.14;98.60;102396.94;6219935;23;20375;-81
2023/11/22 17:06:13;;;;;;;;;;;;;;;4.15;99.59;102393.28;6221493;23;19912;-80
2023/11/22 17:08:38;;;;;;;;;;;;;;;4.10;99.91;102390.97;6231813;23;19912;-80
2023/11/22 17:11:03;;;;;;;;;;;;;;;4.12;100.00;102387.34;6218491;23;19949;-80
2023/11/22 17:13:28;;;;;;;;;;;;;;;4.02;100.00;102397.84;6218660;23;19918;-81
2023/11/22 17:15:55;;;;;;;;;;;;;;;4.04;100.00;102396.78;6216735;23;20015;-81
2023/11/22 17:18:20;;;;;;;;;;;;;;;4.05;100.00;102386.94;6217155;23;20222;-81
2023/11/22 17:20:46;;;;;;;;;;;;;;;4.13;100.00;102389.03;6219305;23;20336;-82
2023/11/22 17:23:11;;;;;;;;;;;;;;;4.10;100.00;102401.63;6219409;23;19959;-82
2023/11/22 17:25:36;;;;;;;;;;;;;;;4.16;100.00;102404.81;6218911;23;19916;-79
2023/11/22 17:28:02;;;;;;;;;;;;;;;4.21;100.00;102402.66;6216361;23;20272;-80
2023/11/22 17:30:28;;;;;;;;;;;;;;;4.22;100.00;102380.34;6216913;23;19991;-82
2023/11/22 17:32:53;;;;;;;;;;;;;;;4.20;100.00;102380.47;6218132;23;19916;-82
2023/11/22 17:35:20;;;;;;;;;;;;;;;4.18;100.00;102392.22;6218046;23;19971;-81
2023/11/22 17:37:45;;;;;;;;;;;;;;;4.15;100.00;102398.59;6217886;23;19916;-82
2023/11/22 17:40:11;;;;;;;;;;;;;;;4.12;100.00;102392.66;6216863;23;19916;-81
2023/11/22 17:42:36;;;;;;;;;;;;;;;4.12;100.00;102392.66;6217479;23;19912;-80
2023/11/22 17:45:01;;;;;;;;;;;;;;;4.14;100.00;102396.94;6217668;23;19916;-80
2023/11/22 17:47:31;;;;;;;;;;;;;;;4.19;100.00;102381.41;6217194;23;19995;-80
2023/11/22 17:49:58;;;;;;;;;;;;;;;4.24;100.00;102365.06;6226379;23;19912;-81
2023/11/22 17:54:58;;;;;;;;;;;;;;;4.17;100.00;102355.84;6211446;23;20239;-81
2023/11/22 17:57:24;;;;;;;;;;;;;;;4.16;100.00;102362.16;6216503;23;19995;-81